createdAt,value
2018-10-18T00:00:40.864Z,1017.39
2018-10-18T00:01:46.399Z,1017.40
2018-10-18T00:02:51.939Z,1017.42
2018-10-18T00:03:57.478Z,1017.40
2018-10-18T00:05:03.029Z,1017.43
2018-10-18T00:06:08.626Z,1017.41
2018-10-18T00:07:14.095Z,1017.43
2018-10-18T00:08:19.634Z,1017.44
2018-10-18T00:09:25.178Z,1017.41
2018-10-18T00:10:30.711Z,1017.39
2018-10-18T00:11:36.256Z,1017.39
2018-10-18T00:12:41.797Z,1017.36
2018-10-18T00:13:47.329Z,1017.39
2018-10-18T00:14:52.869Z,1017.37
2018-10-18T00:15:58.404Z,1017.34
2018-10-18T00:17:03.945Z,1017.38
2018-10-18T00:18:09.532Z,1017.40
2018-10-18T00:19:15.019Z,1017.41
2018-10-18T00:20:20.560Z,1017.43
2018-10-18T00:21:26.098Z,1017.45
2018-10-18T00:22:31.637Z,1017.45
2018-10-18T00:23:37.174Z,1017.42
2018-10-18T00:24:42.717Z,1017.41
2018-10-18T00:25:48.255Z,1017.47
2018-10-18T00:26:53.800Z,1017.42
2018-10-18T00:27:59.335Z,1017.48
2018-10-18T00:29:04.871Z,1017.48
2018-10-18T00:30:10.488Z,1017.54
2018-10-18T00:31:15.953Z,1017.49
2018-10-18T00:32:21.495Z,1017.53
2018-10-18T00:33:27.033Z,1017.52
2018-10-18T00:34:32.573Z,1017.49
2018-10-18T00:35:38.105Z,1017.54
2018-10-18T00:36:43.648Z,1017.55
2018-10-18T00:37:49.189Z,1017.54
2018-10-18T00:38:54.723Z,1017.56
2018-10-18T00:40:00.264Z,1017.58
2018-10-18T00:41:05.801Z,1017.57
2018-10-18T00:42:11.412Z,1017.58
2018-10-18T00:43:16.889Z,1017.59
2018-10-18T00:44:22.423Z,1017.58
2018-10-18T00:45:27.958Z,1017.59
2018-10-18T00:46:33.495Z,1017.57
2018-10-18T00:47:39.045Z,1017.61
2018-10-18T00:48:44.580Z,1017.58
2018-10-18T00:49:50.119Z,1017.57
2018-10-18T00:50:55.653Z,1017.60
2018-10-18T00:52:01.194Z,1017.59
2018-10-18T00:53:06.729Z,1017.60
2018-10-18T00:54:12.292Z,1017.61
2018-10-18T00:55:17.810Z,1017.63
2018-10-18T00:56:23.350Z,1017.65
2018-10-18T00:57:28.888Z,1017.66
2018-10-18T00:58:34.431Z,1017.68
2018-10-18T00:59:39.963Z,1017.68
2018-10-18T01:00:45.502Z,1017.68
2018-10-18T01:01:51.043Z,1017.65
2018-10-18T01:02:56.580Z,1017.66
2018-10-18T01:04:02.120Z,1017.64
2018-10-18T01:05:07.659Z,1017.67
2018-10-18T01:06:13.348Z,1017.63
2018-10-18T01:07:18.740Z,1017.67
2018-10-18T01:08:24.278Z,1017.65
2018-10-18T01:09:29.823Z,1017.63
2018-10-18T01:10:35.355Z,1017.63
2018-10-18T01:11:40.898Z,1017.62
2018-10-18T01:12:46.558Z,1017.62
2018-10-18T01:13:51.990Z,1017.62
2018-10-18T01:14:57.516Z,1017.64
2018-10-18T01:16:03.051Z,1017.63
2018-10-18T01:17:08.594Z,1017.63
2018-10-18T01:18:14.183Z,1017.60
2018-10-18T01:19:19.668Z,1017.62
2018-10-18T01:20:25.214Z,1017.64
2018-10-18T01:21:30.747Z,1017.63
2018-10-18T01:22:36.291Z,1017.61
2018-10-18T01:23:41.827Z,1017.64
2018-10-18T01:24:47.367Z,1017.65
2018-10-18T01:25:52.951Z,1017.63
2018-10-18T01:26:58.443Z,1017.66
2018-10-18T01:28:03.981Z,1017.69
2018-10-18T01:29:09.520Z,1017.66
2018-10-18T01:30:15.229Z,1017.68
2018-10-18T01:31:20.598Z,1017.68
2018-10-18T01:32:26.139Z,1017.63
2018-10-18T01:33:31.677Z,1017.69
2018-10-18T01:34:37.220Z,1017.67
2018-10-18T01:35:42.755Z,1017.69
2018-10-18T01:36:48.294Z,1017.71
2018-10-18T01:37:53.836Z,1017.74
2018-10-18T01:38:59.373Z,1017.64
2018-10-18T01:40:04.910Z,1017.66
2018-10-18T01:41:10.457Z,1017.67
2018-10-18T01:42:16.063Z,1017.64
2018-10-18T01:43:21.528Z,1017.66
2018-10-18T01:44:27.077Z,1017.60
2018-10-18T01:45:32.607Z,1017.62
2018-10-18T01:46:38.146Z,1017.59
2018-10-18T01:47:43.687Z,1017.57
2018-10-18T01:48:49.222Z,1017.59
2018-10-18T01:49:54.795Z,1017.57
2018-10-18T01:51:00.308Z,1017.59
2018-10-18T01:52:05.842Z,1017.60
2018-10-18T01:53:11.380Z,1017.60
2018-10-18T01:54:17.045Z,1017.61
2018-10-18T01:55:22.463Z,1017.57
2018-10-18T01:56:27.998Z,1017.63
2018-10-18T01:57:33.538Z,1017.61
2018-10-18T01:58:39.079Z,1017.63
2018-10-18T01:59:44.619Z,1017.59
2018-10-18T02:00:50.155Z,1017.61
2018-10-18T02:01:55.755Z,1017.55
2018-10-18T02:03:01.273Z,1017.56
2018-10-18T02:04:06.771Z,1017.49
2018-10-18T02:05:12.318Z,1017.55
2018-10-18T02:06:17.921Z,1017.54
2018-10-18T02:07:23.394Z,1017.56
2018-10-18T02:08:28.930Z,1017.52
2018-10-18T02:09:34.465Z,1017.58
2018-10-18T02:10:40.015Z,1017.55
2018-10-18T02:11:45.546Z,1017.58
2018-10-18T02:12:51.086Z,1017.58
2018-10-18T02:13:56.624Z,1017.56
2018-10-18T02:15:02.168Z,1017.60
2018-10-18T02:16:07.703Z,1017.63
2018-10-18T02:17:13.248Z,1017.63
2018-10-18T02:18:18.915Z,1017.60
2018-10-18T02:19:24.328Z,1017.60
2018-10-18T02:20:29.862Z,1017.61
2018-10-18T02:21:35.398Z,1017.59
2018-10-18T02:22:40.937Z,1017.60
2018-10-18T02:23:46.481Z,1017.58
2018-10-18T02:24:52.068Z,1017.58
2018-10-18T02:25:57.557Z,1017.60
2018-10-18T02:27:03.094Z,1017.60
2018-10-18T02:28:08.641Z,1017.60
2018-10-18T02:29:14.180Z,1017.60
2018-10-18T02:30:19.721Z,1017.66
2018-10-18T02:31:25.259Z,1017.61
2018-10-18T02:32:30.795Z,1017.65
2018-10-18T02:33:36.329Z,1017.63
2018-10-18T02:34:41.868Z,1017.67
2018-10-18T02:35:47.411Z,1017.66
2018-10-18T02:36:52.955Z,1017.67
2018-10-18T02:37:58.489Z,1017.69
2018-10-18T02:39:04.036Z,1017.68
2018-10-18T02:40:09.573Z,1017.69
2018-10-18T02:41:15.105Z,1017.66
2018-10-18T02:42:20.686Z,1017.73
2018-10-18T02:43:26.180Z,1017.73
2018-10-18T02:44:31.723Z,1017.81
2018-10-18T02:45:37.262Z,1017.73
2018-10-18T02:46:42.801Z,1017.78
2018-10-18T02:47:48.339Z,1017.77
2018-10-18T02:48:53.880Z,1017.77
2018-10-18T02:49:59.416Z,1017.78
2018-10-18T02:51:04.957Z,1017.76
2018-10-18T02:52:10.497Z,1017.80
2018-10-18T02:53:16.042Z,1017.77
2018-10-18T02:54:21.640Z,1017.77
2018-10-18T02:55:27.120Z,1017.80
2018-10-18T02:56:32.652Z,1017.78
2018-10-18T02:57:38.201Z,1017.78
2018-10-18T02:58:43.729Z,1017.78
2018-10-18T02:59:49.275Z,1017.83
2018-10-18T03:00:54.814Z,1017.81
2018-10-18T03:02:00.350Z,1017.85
2018-10-18T03:03:06.618Z,1017.87
2018-10-18T03:04:11.433Z,1017.88
2018-10-18T03:05:16.970Z,1017.82
2018-10-18T03:06:22.506Z,1017.86
2018-10-18T03:07:28.052Z,1017.84
2018-10-18T03:08:33.583Z,1017.82
2018-10-18T03:09:39.122Z,1017.87
2018-10-18T03:10:44.662Z,1017.84
2018-10-18T03:11:50.202Z,1017.82
2018-10-18T03:12:55.740Z,1017.85
2018-10-18T03:14:01.278Z,1017.85
2018-10-18T03:15:06.823Z,1017.82
2018-10-18T03:16:12.471Z,1017.84
2018-10-18T03:17:17.898Z,1017.80
2018-10-18T03:18:23.436Z,1017.78
2018-10-18T03:19:28.981Z,1017.79
2018-10-18T03:20:34.514Z,1017.79
2018-10-18T03:21:40.057Z,1017.84
2018-10-18T03:22:45.592Z,1017.76
2018-10-18T03:23:51.138Z,1017.82
2018-10-18T03:24:56.674Z,1017.85
2018-10-18T03:26:02.213Z,1017.89
2018-10-18T03:27:07.751Z,1017.88
2018-10-18T03:28:13.289Z,1017.93
2018-10-18T03:29:18.842Z,1017.90
2018-10-18T03:30:24.365Z,1017.89
2018-10-18T03:31:29.914Z,1017.90
2018-10-18T03:32:35.447Z,1017.91
2018-10-18T03:33:40.984Z,1017.92
2018-10-18T03:34:46.524Z,1017.91
2018-10-18T03:35:52.087Z,1017.91
2018-10-18T03:36:57.602Z,1017.91
2018-10-18T03:38:03.141Z,1017.93
2018-10-18T03:39:08.683Z,1017.96
2018-10-18T03:40:14.219Z,1017.92
2018-10-18T03:41:19.817Z,1017.96
2018-10-18T03:42:25.299Z,1017.96
2018-10-18T03:43:30.839Z,1017.95
2018-10-18T03:44:36.381Z,1017.94
2018-10-18T03:45:41.913Z,1017.98
2018-10-18T03:46:47.457Z,1017.99
2018-10-18T03:47:53.027Z,1017.98
2018-10-18T03:48:58.535Z,1017.95
2018-10-18T03:50:04.078Z,1017.98
2018-10-18T03:51:09.610Z,1018.03
2018-10-18T03:52:15.154Z,1018.06
2018-10-18T03:53:20.697Z,1018.04
2018-10-18T03:54:26.235Z,1018.05
2018-10-18T03:55:31.774Z,1018.12
2018-10-18T03:56:37.307Z,1018.08
2018-10-18T03:57:42.845Z,1018.10
2018-10-18T03:58:48.388Z,1018.11
2018-10-18T03:59:53.938Z,1018.12
2018-10-18T04:00:59.471Z,1018.09
2018-10-18T04:02:05.001Z,1018.10
2018-10-18T04:03:10.549Z,1018.11
2018-10-18T04:04:16.082Z,1018.08
2018-10-18T04:05:21.620Z,1018.08
2018-10-18T04:06:27.175Z,1018.10
2018-10-18T04:07:32.699Z,1018.11
2018-10-18T04:08:38.237Z,1018.10
2018-10-18T04:09:43.777Z,1018.09
2018-10-18T04:10:49.319Z,1018.09
2018-10-18T04:11:54.877Z,1018.08
2018-10-18T04:13:00.412Z,1018.03
2018-10-18T04:14:05.938Z,1018.01
2018-10-18T04:15:11.472Z,1018.02
2018-10-18T04:16:17.020Z,1018.07
2018-10-18T04:17:22.557Z,1018.05
2018-10-18T04:18:28.165Z,1018.08
2018-10-18T04:19:33.635Z,1018.08
2018-10-18T04:20:39.171Z,1018.08
2018-10-18T04:21:44.708Z,1018.09
2018-10-18T04:22:50.253Z,1018.07
2018-10-18T04:23:55.830Z,1018.06
2018-10-18T04:25:01.326Z,1018.06
2018-10-18T04:26:06.872Z,1018.05
2018-10-18T04:27:12.409Z,1017.99
2018-10-18T04:28:17.946Z,1017.99
2018-10-18T04:29:23.487Z,1018.01
2018-10-18T04:30:29.029Z,1017.99
2018-10-18T04:31:34.563Z,1018.01
2018-10-18T04:32:40.109Z,1017.99
2018-10-18T04:33:45.644Z,1018.00
2018-10-18T04:34:51.180Z,1017.98
2018-10-18T04:35:56.748Z,1018.01
2018-10-18T04:37:02.266Z,1018.00
2018-10-18T04:38:07.800Z,1017.98
2018-10-18T04:39:13.338Z,1017.98
2018-10-18T04:40:18.880Z,1017.95
2018-10-18T04:41:24.420Z,1017.97
2018-10-18T04:42:29.960Z,1017.90
2018-10-18T04:43:35.500Z,1017.93
2018-10-18T04:44:41.038Z,1017.91
2018-10-18T04:45:46.581Z,1017.83
2018-10-18T04:46:52.118Z,1017.87
2018-10-18T04:47:57.872Z,1017.79
2018-10-18T04:49:03.191Z,1017.77
2018-10-18T04:50:08.733Z,1017.84
2018-10-18T04:51:14.271Z,1017.80
2018-10-18T04:52:19.814Z,1017.85
2018-10-18T04:53:25.356Z,1017.87
2018-10-18T04:54:30.889Z,1017.87
2018-10-18T04:55:36.430Z,1017.89
2018-10-18T04:56:42.020Z,1017.88
2018-10-18T04:57:47.509Z,1017.86
2018-10-18T04:58:53.050Z,1017.87
2018-10-18T04:59:58.587Z,1017.85
2018-10-18T05:01:04.170Z,1017.92
2018-10-18T05:02:09.664Z,1017.90
2018-10-18T05:03:15.211Z,1017.98
2018-10-18T05:04:20.742Z,1017.95
2018-10-18T05:05:26.284Z,1017.95
2018-10-18T05:06:31.819Z,1017.98
2018-10-18T05:07:37.362Z,1017.96
2018-10-18T05:08:42.899Z,1018.00
2018-10-18T05:09:48.438Z,1017.98
2018-10-18T05:10:53.974Z,1018.02
2018-10-18T05:11:59.519Z,1018.03
2018-10-18T05:13:05.073Z,1018.05
2018-10-18T05:14:10.596Z,1018.04
2018-10-18T05:15:16.135Z,1018.04
2018-10-18T05:16:21.679Z,1018.05
2018-10-18T05:17:27.216Z,1018.08
2018-10-18T05:18:32.755Z,1018.08
2018-10-18T05:19:38.295Z,1018.10
2018-10-18T05:20:43.830Z,1018.12
2018-10-18T05:21:49.373Z,1018.09
2018-10-18T05:22:54.915Z,1018.12
2018-10-18T05:24:00.453Z,1018.13
2018-10-18T05:25:06.112Z,1018.12
2018-10-18T05:26:11.527Z,1018.10
2018-10-18T05:27:17.070Z,1018.12
2018-10-18T05:28:22.605Z,1018.10
2018-10-18T05:29:28.146Z,1018.15
2018-10-18T05:30:33.689Z,1018.08
2018-10-18T05:31:39.266Z,1018.12
2018-10-18T05:32:44.761Z,1018.15
2018-10-18T05:33:50.303Z,1018.19
2018-10-18T05:34:55.847Z,1018.18
2018-10-18T05:36:01.382Z,1018.16
2018-10-18T05:37:07.041Z,1018.21
2018-10-18T05:38:12.469Z,1018.23
2018-10-18T05:39:17.999Z,1018.23
2018-10-18T05:40:23.536Z,1018.26
2018-10-18T05:41:29.075Z,1018.25
2018-10-18T05:42:34.616Z,1018.25
2018-10-18T05:43:40.156Z,1018.23
2018-10-18T05:44:45.693Z,1018.30
2018-10-18T05:45:51.241Z,1018.28
2018-10-18T05:46:56.835Z,1018.28
2018-10-18T05:48:02.312Z,1018.26
2018-10-18T05:49:07.901Z,1018.33
2018-10-18T05:50:13.391Z,1018.34
2018-10-18T05:51:18.935Z,1018.37
2018-10-18T05:52:24.470Z,1018.34
2018-10-18T05:53:30.057Z,1018.39
2018-10-18T05:54:35.547Z,1018.38
2018-10-18T05:55:41.093Z,1018.41
2018-10-18T05:56:46.634Z,1018.42
2018-10-18T05:57:52.175Z,1018.45
2018-10-18T05:58:57.705Z,1018.48
2018-10-18T06:00:03.259Z,1018.52
2018-10-18T06:01:08.810Z,1018.49
2018-10-18T06:02:14.323Z,1018.50
2018-10-18T06:03:19.869Z,1018.51
2018-10-18T06:04:25.405Z,1018.52
2018-10-18T06:05:30.943Z,1018.54
2018-10-18T06:06:36.483Z,1018.53
2018-10-18T06:07:42.020Z,1018.57
2018-10-18T06:08:47.560Z,1018.58
2018-10-18T06:09:53.127Z,1018.64
2018-10-18T06:10:58.642Z,1018.67
2018-10-18T06:12:04.182Z,1018.68
2018-10-18T06:13:09.775Z,1018.65
2018-10-18T06:14:15.254Z,1018.69
2018-10-18T06:15:20.797Z,1018.67
2018-10-18T06:16:26.333Z,1018.71
2018-10-18T06:17:31.885Z,1018.71
2018-10-18T06:18:37.417Z,1018.74
2018-10-18T06:19:42.949Z,1018.76
2018-10-18T06:20:48.488Z,1018.82
2018-10-18T06:21:54.077Z,1018.79
2018-10-18T06:22:59.639Z,1018.84
2018-10-18T06:24:05.109Z,1018.90
2018-10-18T06:25:10.720Z,1018.92
2018-10-18T06:26:16.185Z,1018.93
2018-10-18T06:27:21.728Z,1018.94
2018-10-18T06:28:27.272Z,1018.91
2018-10-18T06:29:32.807Z,1018.94
2018-10-18T06:30:38.346Z,1018.91
2018-10-18T06:31:43.887Z,1018.90
2018-10-18T06:32:49.460Z,1018.93
2018-10-18T06:33:54.961Z,1018.90
2018-10-18T06:35:00.520Z,1018.88
2018-10-18T06:36:06.039Z,1018.93
2018-10-18T06:37:11.625Z,1018.96
2018-10-18T06:38:17.118Z,1018.97
2018-10-18T06:39:22.746Z,1019.00
2018-10-18T06:40:28.199Z,1019.01
2018-10-18T06:41:33.738Z,1019.04
2018-10-18T06:42:39.279Z,1019.08
2018-10-18T06:43:44.820Z,1019.06
2018-10-18T06:44:50.361Z,1019.12
2018-10-18T06:45:55.896Z,1019.10
2018-10-18T06:47:01.956Z,1019.09
2018-10-18T06:48:07.010Z,1019.11
2018-10-18T06:49:12.620Z,1019.05
2018-10-18T06:50:18.049Z,1019.09
2018-10-18T06:51:23.592Z,1019.09
2018-10-18T06:52:29.127Z,1019.10
2018-10-18T08:00:48.818Z,1019.53
2018-10-18T08:01:54.218Z,1019.50
2018-10-18T08:39:09.405Z,1019.53
2018-10-18T08:40:06.813Z,1019.50
2018-10-18T08:41:12.349Z,1019.54
2018-10-18T08:42:17.891Z,1019.59
2018-10-18T08:43:23.432Z,1019.56
2018-10-18T08:44:28.994Z,1019.55
2018-10-18T08:45:34.509Z,1019.62
2018-10-18T08:46:40.045Z,1019.58
2018-10-18T08:47:45.582Z,1019.59
2018-10-18T08:48:51.122Z,1019.66
2018-10-18T08:49:56.726Z,1019.71
2018-10-18T08:51:02.202Z,1019.74
2018-10-18T08:52:07.743Z,1019.72
2018-10-18T08:53:13.283Z,1019.73
2018-10-18T08:54:18.826Z,1019.75
2018-10-18T08:55:24.424Z,1019.78
2018-10-18T08:56:29.902Z,1019.80
2018-10-18T08:57:35.442Z,1019.79
2018-10-18T08:58:40.984Z,1019.78
2018-10-18T08:59:46.521Z,1019.79
2018-10-18T09:00:52.085Z,1019.80
2018-10-18T09:01:57.608Z,1019.76
2018-10-18T09:03:03.147Z,1019.80
2018-10-18T09:04:08.689Z,1019.79
2018-10-18T09:05:14.219Z,1019.82
2018-10-18T09:06:19.763Z,1019.74
2018-10-18T09:07:25.303Z,1019.75
2018-10-18T09:08:30.843Z,1019.77
2018-10-18T09:09:36.382Z,1019.85
2018-10-18T09:10:41.922Z,1019.85
2018-10-18T09:11:47.466Z,1019.87
2018-10-18T09:12:53.009Z,1019.85
2018-10-18T09:13:58.541Z,1019.85
2018-10-18T09:15:04.085Z,1019.84
2018-10-18T09:16:09.748Z,1019.88
2018-10-18T09:17:15.163Z,1019.87
2018-10-18T09:18:20.706Z,1019.95
2018-10-18T09:19:26.245Z,1019.88
2018-10-18T09:20:31.786Z,1019.91
2018-10-18T09:21:37.328Z,1019.92
2018-10-18T09:22:42.866Z,1019.92
2018-10-18T09:23:48.464Z,1019.94
2018-10-18T09:24:53.958Z,1019.91
2018-10-18T09:25:59.487Z,1019.92
2018-10-18T09:27:05.022Z,1019.91
2018-10-18T09:28:10.561Z,1019.92
2018-10-18T09:29:16.099Z,1019.89
2018-10-18T09:30:21.652Z,1019.88
2018-10-18T09:31:27.192Z,1019.86
2018-10-18T09:32:32.728Z,1019.93
2018-10-18T09:33:38.267Z,1019.91
2018-10-18T09:34:43.802Z,1019.90
2018-10-18T09:35:49.340Z,1019.95
2018-10-18T09:36:54.899Z,1019.90
2018-10-18T09:38:00.420Z,1019.91
2018-10-18T09:39:05.964Z,1019.93
2018-10-18T09:40:11.503Z,1019.94
2018-10-18T09:41:17.043Z,1019.95
2018-10-18T09:42:22.583Z,1019.97
2018-10-18T09:43:28.123Z,1019.98
2018-10-18T09:44:33.671Z,1019.96
2018-10-18T09:45:39.205Z,1019.96
2018-10-18T09:46:44.741Z,1020.00
2018-10-18T09:47:50.283Z,1019.98
2018-10-18T09:48:55.829Z,1020.00
2018-10-18T09:50:01.364Z,1020.03
2018-10-18T09:51:06.905Z,1019.99
2018-10-18T09:52:12.441Z,1020.02
2018-10-18T09:53:17.984Z,1020.03
2018-10-18T09:54:23.525Z,1020.02
2018-10-18T09:55:29.088Z,1019.97
2018-10-18T09:56:34.605Z,1019.96
2018-10-18T09:57:40.149Z,1019.96
2018-10-18T09:58:45.686Z,1019.95
2018-10-18T09:59:51.228Z,1019.97
2018-10-18T10:00:56.832Z,1019.98
2018-10-18T10:02:02.309Z,1019.95
2018-10-18T10:03:07.844Z,1019.98
2018-10-18T10:04:13.442Z,1019.96
2018-10-18T10:05:18.923Z,1019.93
2018-10-18T10:06:24.466Z,1019.93
2018-10-18T10:07:30.004Z,1019.98
2018-10-18T10:08:35.543Z,1020.00
2018-10-18T10:09:41.084Z,1020.02
2018-10-18T10:10:46.633Z,1020.07
2018-10-18T10:11:52.255Z,1020.05
2018-10-18T10:12:57.727Z,1020.04
2018-10-18T10:14:03.245Z,1020.00
2018-10-18T10:15:08.784Z,1020.02
2018-10-18T10:16:14.323Z,1020.02
2018-10-18T10:17:19.894Z,1020.07
2018-10-18T10:18:25.415Z,1020.12
2018-10-18T10:19:30.946Z,1020.14
2018-10-18T10:20:36.491Z,1020.12
2018-10-18T10:21:42.026Z,1020.09
2018-10-18T10:22:47.568Z,1020.07
2018-10-18T10:23:53.112Z,1020.06
2018-10-18T10:24:58.660Z,1020.06
2018-10-18T10:26:04.196Z,1020.08
2018-10-18T10:27:09.727Z,1020.07
2018-10-18T10:28:15.267Z,1020.08
2018-10-18T10:29:20.816Z,1020.09
2018-10-18T10:30:26.446Z,1020.11
2018-10-18T10:31:31.894Z,1020.09
2018-10-18T10:32:37.433Z,1020.10
2018-10-18T10:33:42.970Z,1020.08
2018-10-18T10:34:48.510Z,1020.13
2018-10-18T10:35:54.050Z,1020.14
2018-10-18T10:36:59.629Z,1020.15
2018-10-18T10:38:05.134Z,1020.14
2018-10-18T10:39:10.690Z,1020.19
2018-10-18T10:40:16.278Z,1020.12
2018-10-18T10:41:21.753Z,1020.10
2018-10-18T10:42:27.295Z,1020.10
2018-10-18T10:43:32.838Z,1020.10
2018-10-18T10:44:38.409Z,1020.07
2018-10-18T10:45:43.955Z,1020.04
2018-10-18T10:46:49.458Z,1020.10
2018-10-18T10:47:55.013Z,1020.04
2018-10-18T10:49:00.571Z,1020.09
2018-10-18T10:50:06.143Z,1020.07
2018-10-18T10:51:11.740Z,1020.10
2018-10-18T10:52:17.306Z,1020.05
2018-10-18T10:53:22.705Z,1020.05
2018-10-18T10:54:28.239Z,1020.08
2018-10-18T10:55:33.782Z,1020.12
2018-10-18T10:56:39.320Z,1020.14
2018-10-18T10:57:44.855Z,1020.14
2018-10-18T10:58:50.428Z,1020.10
2018-10-18T10:59:55.981Z,1020.12
2018-10-18T11:01:01.477Z,1020.14
2018-10-18T11:02:07.034Z,1020.11
2018-10-18T11:03:12.645Z,1020.07
2018-10-18T11:04:18.106Z,1020.14
2018-10-18T11:05:23.642Z,1020.14
2018-10-18T11:06:29.185Z,1020.18
2018-10-18T11:07:34.722Z,1020.17
2018-10-18T11:08:40.266Z,1020.16
2018-10-18T11:09:46.011Z,1020.11
2018-10-18T11:10:51.349Z,1020.14
2018-10-18T11:11:56.954Z,1020.14
2018-10-18T11:13:02.427Z,1020.13
2018-10-18T11:14:08.057Z,1020.13
2018-10-18T11:15:13.600Z,1020.14
2018-10-18T11:16:19.052Z,1020.15
2018-10-18T11:17:24.592Z,1020.10
2018-10-18T11:18:30.131Z,1020.14
2018-10-18T11:19:35.670Z,1020.12
2018-10-18T11:20:41.209Z,1020.15
2018-10-18T11:21:46.783Z,1020.15
2018-10-18T11:22:52.291Z,1020.17
2018-10-18T11:23:57.865Z,1020.19
2018-10-18T11:25:03.376Z,1020.19
2018-10-18T11:26:08.990Z,1020.19
2018-10-18T11:27:14.502Z,1020.25
2018-10-18T11:28:19.991Z,1020.23
2018-10-18T11:29:25.534Z,1020.22
2018-10-18T11:30:31.084Z,1020.22
2018-10-18T11:31:36.615Z,1020.27
2018-10-18T11:32:42.171Z,1020.25
2018-10-18T11:33:47.694Z,1020.28
2018-10-18T11:34:53.239Z,1020.28
2018-10-18T11:35:58.789Z,1020.29
2018-10-18T11:37:04.316Z,1020.30
2018-10-18T11:38:09.912Z,1020.32
2018-10-18T11:39:15.399Z,1020.31
2018-10-18T11:40:20.935Z,1020.34
2018-10-18T11:41:26.478Z,1020.31
2018-10-18T11:42:32.020Z,1020.33
2018-10-18T11:43:37.558Z,1020.31
2018-10-18T11:44:43.097Z,1020.31
2018-10-18T11:45:48.637Z,1020.27
2018-10-18T11:46:54.180Z,1020.31
2018-10-18T11:47:59.763Z,1020.30
2018-10-18T11:49:05.258Z,1020.41
2018-10-18T11:50:10.888Z,1020.36
2018-10-18T11:51:16.340Z,1020.43
2018-10-18T11:52:21.880Z,1020.38
2018-10-18T11:53:27.421Z,1020.42
2018-10-18T11:54:32.964Z,1020.41
2018-10-18T11:55:38.504Z,1020.41
2018-10-18T11:56:44.040Z,1020.43
2018-10-18T11:57:49.584Z,1020.40
2018-10-18T11:58:55.127Z,1020.42
2018-10-18T12:00:00.661Z,1020.44
2018-10-18T12:01:06.220Z,1020.42
2018-10-18T12:02:11.837Z,1020.45
2018-10-18T12:03:17.279Z,1020.43
2018-10-18T12:04:22.821Z,1020.39
2018-10-18T12:05:28.362Z,1020.37
2018-10-18T12:06:33.907Z,1020.36
2018-10-18T12:07:39.440Z,1020.39
2018-10-18T12:08:44.980Z,1020.38
2018-10-18T12:09:50.522Z,1020.37
2018-10-18T12:10:56.093Z,1020.40
2018-10-18T12:12:01.601Z,1020.42
2018-10-18T12:13:07.143Z,1020.40
2018-10-18T12:14:12.743Z,1020.45
2018-10-18T12:15:18.218Z,1020.45
2018-10-18T12:16:23.765Z,1020.47
2018-10-18T12:17:29.301Z,1020.45
2018-10-18T12:18:34.840Z,1020.44
2018-10-18T12:19:40.380Z,1020.45
2018-10-18T12:20:45.912Z,1020.44
2018-10-18T12:21:51.463Z,1020.46
2018-10-18T12:22:57.010Z,1020.43
2018-10-18T12:24:02.545Z,1020.39
2018-10-18T12:25:08.077Z,1020.43
2018-10-18T12:26:13.685Z,1020.46
2018-10-18T12:27:19.163Z,1020.40
2018-10-18T12:28:24.704Z,1020.39
2018-10-18T12:29:30.243Z,1020.40
2018-10-18T12:30:35.776Z,1020.39
2018-10-18T12:31:41.321Z,1020.41
2018-10-18T12:32:46.863Z,1020.42
2018-10-18T12:33:52.396Z,1020.40
2018-10-18T12:34:57.974Z,1020.47
2018-10-18T12:36:03.478Z,1020.45
2018-10-18T12:37:09.016Z,1020.43
2018-10-18T12:38:14.728Z,1020.48
2018-10-18T12:39:20.101Z,1020.49
2018-10-18T12:40:25.657Z,1020.46
2018-10-18T12:41:31.321Z,1020.45
2018-10-18T12:42:36.719Z,1020.43
2018-10-18T12:43:42.261Z,1020.47
2018-10-18T12:44:47.794Z,1020.45
2018-10-18T12:45:53.336Z,1020.43
2018-10-18T12:46:58.875Z,1020.48
2018-10-18T12:48:04.475Z,1020.51
2018-10-18T12:49:09.957Z,1020.50
2018-10-18T12:50:15.553Z,1020.49
2018-10-18T12:51:21.030Z,1020.50
2018-10-18T12:52:26.573Z,1020.51
2018-10-18T12:53:32.122Z,1020.47
2018-10-18T12:54:37.713Z,1020.51
2018-10-18T12:55:43.193Z,1020.58
2018-10-18T12:56:48.734Z,1020.57
2018-10-18T12:57:54.272Z,1020.61
2018-10-18T12:58:59.811Z,1020.58
2018-10-18T13:00:05.393Z,1020.60
2018-10-18T13:01:10.886Z,1020.60
2018-10-18T13:02:16.487Z,1020.65
2018-10-18T13:03:21.972Z,1020.65
2018-10-18T13:04:27.509Z,1020.65
2018-10-18T13:05:33.049Z,1020.65
2018-10-18T13:06:38.587Z,1020.69
2018-10-18T13:07:44.127Z,1020.69
2018-10-18T13:08:49.670Z,1020.69
2018-10-18T13:09:55.209Z,1020.73
2018-10-18T13:11:00.744Z,1020.70
2018-10-18T13:12:06.317Z,1020.72
2018-10-18T13:13:11.827Z,1020.74
2018-10-18T13:14:17.415Z,1020.71
2018-10-18T13:15:22.902Z,1020.78
2018-10-18T13:16:28.443Z,1020.74
2018-10-18T13:17:33.981Z,1020.73
2018-10-18T13:18:39.523Z,1020.71
2018-10-18T13:19:45.065Z,1020.74
2018-10-18T13:20:50.608Z,1020.69
2018-10-18T13:21:56.142Z,1020.74
2018-10-18T13:23:01.682Z,1020.75
2018-10-18T13:24:07.280Z,1020.77
2018-10-18T13:25:12.814Z,1020.75
2018-10-18T13:26:18.367Z,1020.77
2018-10-18T13:27:23.839Z,1020.78
2018-10-18T13:28:29.375Z,1020.78
2018-10-18T13:29:34.942Z,1020.78
2018-10-18T13:30:40.467Z,1020.75
2018-10-18T13:31:45.995Z,1020.78
2018-10-18T13:32:51.537Z,1020.73
2018-10-18T13:33:57.089Z,1020.75
2018-10-18T13:35:02.613Z,1020.75
2018-10-18T13:36:08.199Z,1020.74
2018-10-18T13:37:13.692Z,1020.75
2018-10-18T13:38:19.234Z,1020.73
2018-10-18T13:39:24.775Z,1020.75
2018-10-18T13:40:30.362Z,1020.78
2018-10-18T13:41:35.852Z,1020.77
2018-10-18T13:42:41.392Z,1020.79
2018-10-18T13:43:46.928Z,1020.83
2018-10-18T13:44:55.440Z,1020.82
2018-10-18T13:45:58.012Z,1020.77
2018-10-18T13:47:03.547Z,1020.81
2018-10-18T13:48:09.176Z,1020.76
2018-10-18T13:49:14.629Z,1020.81
2018-10-18T13:50:20.276Z,1020.83
2018-10-18T13:51:25.703Z,1020.80
2018-10-18T13:52:31.238Z,1020.81
2018-10-18T13:53:36.782Z,1020.80
2018-10-18T13:54:42.324Z,1020.81
2018-10-18T13:55:47.862Z,1020.81
2018-10-18T13:56:53.396Z,1020.79
2018-10-18T13:57:58.941Z,1020.77
2018-10-18T13:59:04.540Z,1020.84
2018-10-18T14:00:10.048Z,1020.79
2018-10-18T14:01:15.556Z,1020.81
2018-10-18T14:02:21.111Z,1020.85
2018-10-18T14:03:26.636Z,1020.89
2018-10-18T14:04:32.175Z,1020.89
2018-10-18T14:05:37.774Z,1020.85
2018-10-18T14:06:43.263Z,1020.85
2018-10-18T14:07:48.818Z,1020.87
2018-10-18T14:08:54.339Z,1020.87
2018-10-18T14:09:59.873Z,1020.86
2018-10-18T14:11:05.431Z,1020.85
2018-10-18T14:12:10.955Z,1020.81
2018-10-18T14:13:16.494Z,1020.84
2018-10-18T14:14:22.030Z,1020.86
2018-10-18T14:15:27.577Z,1020.85
2018-10-18T14:16:33.109Z,1020.84
2018-10-18T14:17:38.744Z,1020.87
2018-10-18T14:18:44.190Z,1020.85
2018-10-18T14:19:49.735Z,1020.83
2018-10-18T14:20:55.267Z,1020.87
2018-10-18T14:22:00.809Z,1020.86
2018-10-18T14:23:06.392Z,1020.92
2018-10-18T14:24:11.889Z,1020.89
2018-10-18T14:25:17.426Z,1020.88
2018-10-18T14:26:22.965Z,1020.87
2018-10-18T14:27:28.507Z,1020.88
2018-10-18T14:28:34.044Z,1020.88
2018-10-18T14:29:39.580Z,1020.88
2018-10-18T14:30:45.169Z,1020.88
2018-10-18T14:31:50.664Z,1020.85
2018-10-18T14:32:56.203Z,1020.89
2018-10-18T14:34:01.745Z,1020.87
2018-10-18T14:35:07.353Z,1020.90
2018-10-18T14:36:12.820Z,1020.91
2018-10-18T14:37:18.359Z,1020.90
2018-10-18T14:38:23.959Z,1020.94
2018-10-18T14:39:29.440Z,1020.91
2018-10-18T14:40:34.975Z,1020.91
2018-10-18T14:41:40.516Z,1020.92
2018-10-18T14:42:46.058Z,1020.89
2018-10-18T14:43:52.520Z,1020.91
2018-10-18T14:44:57.195Z,1020.92
2018-10-18T14:46:02.675Z,1020.95
2018-10-18T14:47:08.326Z,1020.94
2018-10-18T14:48:13.751Z,1020.93
2018-10-18T14:49:19.294Z,1020.92
2018-10-18T14:50:25.020Z,1020.89
2018-10-18T14:51:30.962Z,1020.89
2018-10-18T14:52:35.912Z,1020.92
2018-10-18T14:53:41.446Z,1020.87
2018-10-18T14:54:46.987Z,1020.90
2018-10-18T14:55:52.563Z,1020.89